createdAt,value
2024-02-26T00:03:22.808Z,2.83
2024-02-26T00:07:23.921Z,2.83
2024-02-26T00:11:23.360Z,2.83
2024-02-26T00:15:22.715Z,2.83
2024-02-26T00:19:26.179Z,2.83
2024-02-26T00:23:22.761Z,2.83
2024-02-26T00:27:22.200Z,2.83
2024-02-26T00:31:22.882Z,2.83
2024-02-26T00:35:23.822Z,2.83
2024-02-26T00:39:22.410Z,2.83
2024-02-26T00:43:22.482Z,2.83
2024-02-26T00:47:22.289Z,2.83
2024-02-26T00:51:25.889Z,2.83
2024-02-26T00:55:22.547Z,2.83
2024-02-26T00:59:22.808Z,2.83
2024-02-26T01:03:23.529Z,2.83
2024-02-26T01:07:24.566Z,2.83
2024-02-26T01:11:22.441Z,2.83
2024-02-26T01:15:23.512Z,2.83
2024-02-26T01:19:24.629Z,2.83
2024-02-26T01:23:22.697Z,2.83
2024-02-26T01:31:22.876Z,2.83
2024-02-26T01:35:23.506Z,2.83
2024-02-26T01:39:22.553Z,2.83
2024-02-26T01:43:22.931Z,2.83
2024-02-26T01:47:22.703Z,2.83
2024-02-26T01:51:22.463Z,2.83
2024-02-26T01:55:22.678Z,2.83
2024-02-26T01:59:22.631Z,2.83
2024-02-26T02:03:22.831Z,2.83
2024-02-26T02:07:23.471Z,2.83
2024-02-26T02:11:22.403Z,2.83
2024-02-26T02:15:22.797Z,2.83
2024-02-26T02:19:23.270Z,2.83
2024-02-26T02:23:22.890Z,2.83
2024-02-26T02:27:22.703Z,2.83
2024-02-26T02:31:23.143Z,2.83
2024-02-26T02:35:23.255Z,2.83
2024-02-26T02:39:22.508Z,2.83
2024-02-26T02:43:22.675Z,2.83
2024-02-26T02:47:22.790Z,2.83
2024-02-26T02:51:22.588Z,2.83
2024-02-26T02:55:22.823Z,2.83
2024-02-26T02:59:22.584Z,2.83
2024-02-26T03:03:22.363Z,2.83
2024-02-26T03:07:24.483Z,2.83
2024-02-26T03:11:23.263Z,2.83
2024-02-26T03:15:22.478Z,2.83
2024-02-26T03:19:25.749Z,2.83
2024-02-26T03:23:22.726Z,2.83
2024-02-26T03:27:23.161Z,2.83
2024-02-26T03:31:22.660Z,2.83
2024-02-26T03:35:23.869Z,2.83
2024-02-26T03:39:22.877Z,2.83
2024-02-26T03:43:22.909Z,2.83
2024-02-26T03:47:23.133Z,2.83
2024-02-26T03:51:22.594Z,2.83
2024-02-26T03:55:22.431Z,2.83
2024-02-26T03:59:22.370Z,2.83
2024-02-26T04:03:23.038Z,2.83
2024-02-26T04:07:23.358Z,2.83
2024-02-26T04:11:27.410Z,2.83
2024-02-26T04:15:22.621Z,2.83
2024-02-26T04:19:24.004Z,2.83
2024-02-26T04:23:22.617Z,2.83
2024-02-26T04:27:22.647Z,2.83
2024-02-26T04:31:23.487Z,2.83
2024-02-26T04:35:24.881Z,2.83
2024-02-26T04:39:22.549Z,2.83
2024-02-26T04:43:22.675Z,2.83
2024-02-26T04:47:22.729Z,2.83
2024-02-26T04:51:22.735Z,2.83
2024-02-26T04:55:22.479Z,2.83
2024-02-26T04:59:22.461Z,2.83
2024-02-26T05:03:22.722Z,2.83
2024-02-26T05:07:23.775Z,2.83
2024-02-26T05:11:22.915Z,2.83
2024-02-26T05:15:22.319Z,2.83
2024-02-26T05:19:24.562Z,2.83
2024-02-26T05:23:24.123Z,2.83
2024-02-26T05:27:22.508Z,2.83
2024-02-26T05:31:22.916Z,2.83
2024-02-26T05:35:23.720Z,2.83
2024-02-26T05:39:28.435Z,2.83
2024-02-26T05:43:22.459Z,2.83
2024-02-26T05:47:22.354Z,2.83
2024-02-26T05:51:23.092Z,2.83
2024-02-26T05:55:22.420Z,2.83
2024-02-26T05:59:22.390Z,2.83
2024-02-26T06:03:22.651Z,2.83
2024-02-26T06:07:27.032Z,2.83
2024-02-26T06:11:23.281Z,2.83
2024-02-26T06:15:26.503Z,2.83
2024-02-26T06:19:25.951Z,2.83
2024-02-26T06:23:22.830Z,2.83
2024-02-26T06:27:22.108Z,2.83
2024-02-26T06:31:22.761Z,2.83
2024-02-26T06:35:23.829Z,2.83
2024-02-26T06:39:22.514Z,2.83
2024-02-26T06:43:24.703Z,2.83
2024-02-26T06:47:22.676Z,2.83
2024-02-26T06:51:22.981Z,2.83
2024-02-26T06:55:22.988Z,2.83
2024-02-26T06:59:22.696Z,2.83
2024-02-26T07:03:26.693Z,2.83
2024-02-26T07:07:23.678Z,2.83
2024-02-26T07:11:22.959Z,2.83
2024-02-26T07:15:23.231Z,2.83
2024-02-26T07:19:23.522Z,2.83
2024-02-26T07:23:22.335Z,2.83
2024-02-26T07:27:22.977Z,2.83
2024-02-26T07:31:23.226Z,2.83
2024-02-26T07:35:23.867Z,2.83
2024-02-26T07:39:42.666Z,2.83
2024-02-26T07:43:22.752Z,2.83
2024-02-26T07:47:22.341Z,2.83
2024-02-26T07:51:23.443Z,2.83
2024-02-26T07:55:22.831Z,2.83
2024-02-26T07:59:22.112Z,2.83
2024-02-26T08:03:23.609Z,2.83
2024-02-26T08:07:25.860Z,2.83
2024-02-26T08:11:22.353Z,2.83
2024-02-26T08:15:22.513Z,2.83
2024-02-26T08:19:23.709Z,2.83
2024-02-26T08:23:25.752Z,2.83
2024-02-26T08:27:25.500Z,2.83
2024-02-26T08:31:22.804Z,2.83
2024-02-26T08:35:24.340Z,2.83
2024-02-26T08:39:23.214Z,2.83
2024-02-26T08:43:23.170Z,2.83
2024-02-26T08:47:22.090Z,2.83
2024-02-26T08:51:22.633Z,2.83
2024-02-26T08:55:22.940Z,2.83
2024-02-26T08:59:22.987Z,2.83
2024-02-26T09:03:28.115Z,2.83
2024-02-26T09:07:23.265Z,2.83
2024-02-26T09:11:22.211Z,2.83
2024-02-26T09:15:26.324Z,2.83
2024-02-26T09:19:24.117Z,2.83
2024-02-26T09:23:25.178Z,2.83
2024-02-26T09:27:22.162Z,2.83
2024-02-26T09:31:22.744Z,2.83
2024-02-26T09:35:27.294Z,2.83
2024-02-26T09:39:41.663Z,2.83
2024-02-26T09:43:22.791Z,2.83
2024-02-26T09:47:26.113Z,2.83
2024-02-26T09:51:23.358Z,2.83
2024-02-26T09:55:22.431Z,2.83
2024-02-26T09:59:23.123Z,2.83
2024-02-26T10:03:22.851Z,2.83
2024-02-26T10:07:23.410Z,2.83
2024-02-26T10:11:23.599Z,2.83
2024-02-26T10:15:23.037Z,2.83
2024-02-26T10:19:49.086Z,2.83
2024-02-26T10:23:22.258Z,2.83
2024-02-26T10:27:22.519Z,2.83
2024-02-26T10:31:31.104Z,2.83
2024-02-26T10:35:27.445Z,2.83
2024-02-26T10:39:23.304Z,2.83
2024-02-26T10:43:23.382Z,2.83
2024-02-26T10:47:22.872Z,2.83
2024-02-26T10:51:25.411Z,2.83
2024-02-26T10:55:25.738Z,2.83
2024-02-26T10:59:22.597Z,2.83
2024-02-26T11:03:23.282Z,2.83
2024-02-26T11:07:24.200Z,2.83
2024-02-26T11:11:23.094Z,0.79
2024-02-26T11:15:24.419Z,1.26
2024-02-26T11:19:24.809Z,1.32
2024-02-26T11:23:39.756Z,1.72
2024-02-26T11:27:24.077Z,1.93
2024-02-26T11:31:22.546Z,1.95
2024-02-26T11:35:23.765Z,2.07
2024-02-26T11:39:22.640Z,2.14
2024-02-26T11:43:23.560Z,2.14
2024-02-26T11:47:23.495Z,2.23
2024-02-26T11:51:27.721Z,2.28
2024-02-26T11:55:22.727Z,2.28
2024-02-26T11:59:23.171Z,2.32
2024-02-26T12:03:24.340Z,2.35
2024-02-26T12:07:23.169Z,2.35
2024-02-26T12:11:22.364Z,2.37
2024-02-26T12:15:23.050Z,2.39
2024-02-26T12:19:24.349Z,2.39
2024-02-26T12:23:23.278Z,2.41
2024-02-26T12:27:25.505Z,2.43
2024-02-26T12:31:23.270Z,2.43
2024-02-26T12:35:24.296Z,2.46
2024-02-26T12:39:23.443Z,2.48
2024-02-26T12:43:23.353Z,2.48
2024-02-26T12:47:26.061Z,2.52
2024-02-26T12:51:24.537Z,2.55
2024-02-26T12:55:22.696Z,2.56
2024-02-26T12:59:22.683Z,2.58
2024-02-26T13:03:24.113Z,2.6
2024-02-26T13:07:24.465Z,2.62
2024-02-26T13:11:22.575Z,2.63
2024-02-26T13:15:25.876Z,2.66
2024-02-26T13:19:24.799Z,2.66
2024-02-26T13:23:22.029Z,2.69
2024-02-26T13:27:22.749Z,2.72
2024-02-26T13:31:23.287Z,2.72
2024-02-26T13:35:23.609Z,2.73
2024-02-26T13:39:22.604Z,2.75
2024-02-26T13:43:23.197Z,2.75
2024-02-26T13:47:25.398Z,2.78
2024-02-26T13:51:22.840Z,2.8
2024-02-26T13:55:22.945Z,2.78
2024-02-26T13:59:22.493Z,2.8
2024-02-26T14:03:22.516Z,2.81
2024-02-26T14:07:23.929Z,2.83
2024-02-26T14:11:22.900Z,2.86
2024-02-26T14:15:22.853Z,2.86
2024-02-26T14:19:27.781Z,2.84
2024-02-26T14:23:22.698Z,2.88
2024-02-26T14:27:23.146Z,2.92
2024-02-26T14:31:22.594Z,2.92
2024-02-26T14:35:29.099Z,2.92
2024-02-26T14:39:22.776Z,2.92
2024-02-26T14:43:23.426Z,2.92
2024-02-26T14:47:22.963Z,2.98
2024-02-26T14:51:22.780Z,2.98
2024-02-26T14:55:22.585Z,2.98
2024-02-26T14:59:22.352Z,2.99
2024-02-26T15:03:22.448Z,3.03
2024-02-26T15:07:28.081Z,3.03
2024-02-26T15:11:23.030Z,3.03
2024-02-26T15:15:23.115Z,3.05
2024-02-26T15:19:29.515Z,3.05
2024-02-26T15:23:22.877Z,3.06
2024-02-26T15:27:22.294Z,3.06
2024-02-26T15:31:26.749Z,3.06
2024-02-26T15:35:24.047Z,3.08
2024-02-26T15:39:22.842Z,3.1
2024-02-26T15:43:26.947Z,3.1
2024-02-26T15:47:22.644Z,3.14
2024-02-26T15:51:23.826Z,3.15
2024-02-26T15:55:26.191Z,3.15
2024-02-26T15:59:22.673Z,3.14
2024-02-26T16:03:22.634Z,3.17
2024-02-26T16:07:23.854Z,3.15
2024-02-26T16:11:23.053Z,3.19
2024-02-26T16:15:22.490Z,3.23
2024-02-26T16:19:24.077Z,3.23
2024-02-26T16:23:22.769Z,3.25
2024-02-26T16:27:22.245Z,3.27
2024-02-26T16:31:22.957Z,3.27
2024-02-26T16:35:23.183Z,3.31
2024-02-26T16:39:22.747Z,3.31
2024-02-26T16:43:26.285Z,3.31
2024-02-26T16:47:23.429Z,3.31
2024-02-26T16:51:23.641Z,3.31
2024-02-26T16:55:22.254Z,3.31
2024-02-26T16:59:22.290Z,3.31
2024-02-26T17:03:22.246Z,3.31
2024-02-26T17:07:26.067Z,3.31
2024-02-26T17:11:23.269Z,3.31
2024-02-26T17:15:23.017Z,3.31
2024-02-26T17:19:23.262Z,3.31
2024-02-26T17:23:22.117Z,3.31
2024-02-26T17:27:22.591Z,3.31
2024-02-26T17:31:23.249Z,3.31
2024-02-26T17:35:24.379Z,3.31
2024-02-26T17:39:22.351Z,3.31
2024-02-26T17:43:22.849Z,3.31
2024-02-26T17:47:22.719Z,3.31
2024-02-26T17:51:23.415Z,3.31
2024-02-26T17:55:22.188Z,3.31
2024-02-26T17:59:22.117Z,3.31
2024-02-26T18:03:22.802Z,3.31
2024-02-26T18:07:23.661Z,3.31
2024-02-26T18:11:23.386Z,3.31
2024-02-26T18:15:22.333Z,3.31
2024-02-26T18:19:24.187Z,3.31
2024-02-26T18:23:22.557Z,3.31
2024-02-26T18:27:25.672Z,3.31
2024-02-26T18:31:23.251Z,3.31
2024-02-26T18:35:23.742Z,3.31
2024-02-26T18:39:22.725Z,3.31
2024-02-26T18:43:22.830Z,3.31
2024-02-26T18:47:22.463Z,3.31
2024-02-26T18:51:23.331Z,3.31
2024-02-26T18:55:24.407Z,3.31
2024-02-26T18:59:22.688Z,3.31
2024-02-26T19:03:22.942Z,3.31
2024-02-26T19:07:25.376Z,3.31
2024-02-26T19:11:22.908Z,3.31
2024-02-26T19:15:22.921Z,3.31
2024-02-26T19:19:24.199Z,3.31
2024-02-26T19:23:24.850Z,3.31
2024-02-26T19:27:22.376Z,3.31
2024-02-26T19:31:23.009Z,3.31
2024-02-26T19:35:23.881Z,3.31
2024-02-26T19:39:22.975Z,3.31
2024-02-26T19:43:22.268Z,3.31
2024-02-26T19:47:22.164Z,3.31
2024-02-26T19:51:23.059Z,3.31
2024-02-26T19:55:24.105Z,3.31
2024-02-26T19:59:22.677Z,3.31
2024-02-26T20:03:22.799Z,3.31
2024-02-26T20:07:23.669Z,3.31
2024-02-26T20:11:23.056Z,3.31
2024-02-26T20:15:26.743Z,3.31
2024-02-26T20:19:23.448Z,3.31
2024-02-26T20:23:26.491Z,3.31
2024-02-26T20:27:22.256Z,3.31
2024-02-26T20:31:22.897Z,3.31
2024-02-26T20:35:24.462Z,3.31
2024-02-26T20:39:22.318Z,3.31
2024-02-26T20:43:22.604Z,3.31
2024-02-26T20:47:22.871Z,3.31
2024-02-26T20:51:22.437Z,3.31
2024-02-26T20:55:22.480Z,3.31
2024-02-26T20:59:23.390Z,3.31
2024-02-26T21:03:31.735Z,3.31
2024-02-26T21:07:23.063Z,3.31
2024-02-26T21:11:22.831Z,3.31
2024-02-26T21:15:22.575Z,3.31
2024-02-26T21:19:24.902Z,3.31
2024-02-26T21:23:23.023Z,3.31
2024-02-26T21:27:22.427Z,3.31
2024-02-26T21:31:22.873Z,3.31
2024-02-26T21:35:23.862Z,3.31
2024-02-26T21:39:37.578Z,3.31
2024-02-26T21:43:22.373Z,3.31
2024-02-26T21:47:22.430Z,3.31
2024-02-26T21:51:23.188Z,3.31
2024-02-26T21:55:23.762Z,3.31
2024-02-26T21:59:23.481Z,3.31
2024-02-26T22:03:22.398Z,3.31
2024-02-26T22:07:24.787Z,3.31
2024-02-26T22:11:22.517Z,3.31
2024-02-26T22:15:24.189Z,3.31
2024-02-26T22:19:24.252Z,3.31
2024-02-26T22:23:22.685Z,3.31
2024-02-26T22:27:22.271Z,3.31
2024-02-26T22:31:23.078Z,3.31
2024-02-26T22:35:23.426Z,3.31
2024-02-26T22:39:22.919Z,3.31
2024-02-26T22:43:23.214Z,3.31
2024-02-26T22:47:22.183Z,3.31
2024-02-26T22:51:22.867Z,3.31
2024-02-26T22:55:22.546Z,3.31
2024-02-26T22:59:22.581Z,3.31
2024-02-26T23:03:22.499Z,3.31
2024-02-26T23:07:23.321Z,3.31
2024-02-26T23:11:22.772Z,3.31
2024-02-26T23:15:22.843Z,3.31
2024-02-26T23:19:24.368Z,3.31
2024-02-26T23:23:22.410Z,3.31
2024-02-26T23:27:22.469Z,3.31
2024-02-26T23:31:23.102Z,3.31
2024-02-26T23:35:23.382Z,3.31
2024-02-26T23:39:22.878Z,3.31
2024-02-26T23:43:23.662Z,3.31
2024-02-26T23:47:23.049Z,3.31
2024-02-26T23:51:23.324Z,3.31
2024-02-26T23:55:23.125Z,3.31
2024-02-26T23:59:22.939Z,3.31
